createdAt,value
2019-04-04T00:02:08.411Z,86.67
2019-04-04T00:04:38.949Z,86.77
2019-04-04T00:07:09.429Z,87.09
2019-04-04T00:09:39.961Z,87.28
2019-04-04T00:12:11.404Z,87.01
2019-04-04T00:14:43.491Z,87.23
2019-04-04T00:17:14.084Z,87.11
2019-04-04T00:19:44.923Z,87.24
2019-04-04T00:22:15.707Z,87.13
2019-04-04T00:24:46.656Z,87.34
2019-04-04T00:27:17.133Z,87.01
2019-04-04T00:29:48.506Z,86.95
2019-04-04T00:32:21.065Z,86.62
2019-04-04T00:34:52.892Z,86.53
2019-04-04T00:37:23.517Z,86.44
2019-04-04T00:39:54.196Z,86.42
2019-04-04T00:42:24.783Z,86.62
2019-04-04T00:44:55.806Z,86.86
2019-04-04T00:47:27.014Z,87.45
2019-04-04T00:49:57.889Z,87.46
2019-04-04T00:52:28.443Z,87.60
2019-04-04T00:55:00.072Z,88.01
2019-04-04T00:57:32.437Z,87.84
2019-04-04T01:00:03.247Z,88.29
2019-04-04T01:02:33.748Z,88.10
2019-04-04T01:05:04.316Z,88.04
2019-04-04T01:07:35.803Z,87.97
2019-04-04T01:10:07.454Z,87.84
2019-04-04T01:12:37.935Z,88.16
2019-04-04T01:15:09.605Z,88.12
2019-04-04T01:17:40.101Z,88.35
2019-04-04T01:20:11.087Z,88.33
2019-04-04T01:22:41.881Z,87.97
2019-04-04T01:25:12.840Z,88.40
2019-04-04T01:27:43.312Z,88.66
2019-04-04T01:30:14.163Z,88.08
2019-04-04T01:32:46.273Z,87.63
2019-04-04T01:35:16.802Z,87.82
2019-04-04T01:37:47.259Z,87.68
2019-04-04T01:40:17.711Z,88.21
2019-04-04T01:42:48.496Z,88.84
2019-04-04T01:45:19.820Z,88.43
2019-04-04T01:47:50.286Z,88.77
2019-04-04T01:50:22.465Z,88.86
2019-04-04T01:52:53.957Z,88.77
2019-04-04T01:55:24.424Z,88.77
2019-04-04T01:57:54.847Z,88.76
2019-04-04T02:00:25.267Z,88.73
2019-04-04T02:02:55.902Z,88.90
2019-04-04T02:05:26.977Z,88.67
2019-04-04T02:07:58.871Z,89.22
2019-04-04T02:10:30.446Z,89.14
2019-04-04T02:13:00.865Z,89.29
2019-04-04T02:15:31.287Z,89.35
2019-04-04T02:18:01.750Z,89.58
2019-04-04T02:20:32.559Z,89.82
2019-04-04T02:23:02.968Z,89.78
2019-04-04T02:25:34.083Z,90.35
2019-04-04T02:28:06.931Z,89.91
2019-04-04T02:30:37.371Z,89.74
2019-04-04T02:33:07.829Z,90.23
2019-04-04T02:35:38.265Z,90.64
2019-04-04T02:38:09.967Z,90.63
2019-04-04T02:40:41.996Z,90.85
2019-04-04T02:43:13.121Z,90.41
2019-04-04T02:45:43.921Z,90.56
2019-04-04T02:48:14.401Z,89.65
2019-04-04T02:50:45.719Z,89.41
2019-04-04T02:53:19.362Z,89.33
2019-04-04T02:55:48.340Z,88.88
2019-04-04T02:58:18.771Z,89.20
2019-04-04T03:00:49.561Z,89.20
2019-04-04T03:03:19.976Z,88.86
2019-04-04T03:05:52.087Z,88.60
2019-04-04T03:08:22.985Z,89.24
2019-04-04T03:10:53.781Z,89.42
2019-04-04T03:13:24.193Z,89.76
2019-04-04T03:15:55.120Z,89.71
2019-04-04T03:18:25.544Z,88.98
2019-04-04T03:20:56.364Z,89.42
2019-04-04T03:23:27.233Z,89.42
2019-04-04T03:25:57.656Z,89.25
2019-04-04T03:28:31.326Z,89.53
2019-04-04T03:31:02.927Z,88.90
2019-04-04T03:33:33.017Z,89.02
2019-04-04T03:36:03.556Z,88.99
2019-04-04T03:38:34.029Z,88.97
2019-04-04T03:41:05.053Z,88.84
2019-04-04T03:43:35.483Z,89.28
2019-04-04T03:46:05.952Z,89.13
2019-04-04T03:48:36.823Z,89.21
2019-04-04T03:51:07.265Z,88.52
2019-04-04T03:53:39.925Z,89.18
2019-04-04T03:56:10.687Z,89.69
2019-04-04T03:58:41.460Z,89.40
2019-04-04T04:01:13.118Z,89.79
2019-04-04T04:03:43.827Z,89.79
2019-04-04T04:06:14.569Z,89.93
2019-04-04T04:08:45.051Z,89.70
2019-04-04T04:11:15.867Z,89.65
2019-04-04T04:13:48.787Z,89.63
2019-04-04T04:16:18.919Z,89.89
2019-04-04T04:18:53.920Z,89.92
2019-04-04T04:21:22.157Z,89.80
2019-04-04T04:23:56.991Z,90.27
2019-04-04T04:26:25.806Z,90.66
2019-04-04T04:28:56.241Z,90.46
2019-04-04T04:31:27.455Z,90.78
2019-04-04T04:34:00.818Z,89.73
2019-04-04T04:36:30.094Z,90.38
2019-04-04T04:39:00.667Z,90.42
2019-04-04T04:41:31.117Z,89.70
2019-04-04T04:44:05.096Z,89.59
2019-04-04T04:46:34.207Z,89.93
2019-04-04T04:49:04.655Z,89.35
2019-04-04T04:51:35.096Z,90.05
2019-04-04T04:54:05.604Z,90.74
2019-04-04T04:56:36.362Z,91.44
2019-04-04T04:59:06.797Z,91.80
2019-04-04T05:01:37.285Z,91.92
2019-04-04T05:04:07.829Z,91.84
2019-04-04T05:06:38.273Z,92.00
2019-04-04T05:09:08.773Z,91.98
2019-04-04T05:11:39.253Z,91.47
2019-04-04T05:14:10.766Z,90.76
2019-04-04T05:16:41.585Z,91.16
2019-04-04T05:19:12.045Z,91.55
2019-04-04T05:21:42.577Z,90.51
2019-04-04T05:24:13.086Z,90.92
2019-04-04T05:26:43.649Z,90.46
2019-04-04T05:29:14.223Z,90.82
2019-04-04T05:31:44.744Z,90.55
2019-04-04T05:34:15.213Z,90.02
2019-04-04T05:36:46.005Z,90.39
2019-04-04T05:39:18.010Z,90.50
2019-04-04T05:41:49.517Z,89.95
2019-04-04T05:44:19.928Z,90.41
2019-04-04T05:46:51.919Z,89.84
2019-04-04T05:49:22.622Z,90.65
2019-04-04T05:51:53.401Z,90.87
2019-04-04T05:54:23.881Z,90.63
2019-04-04T05:56:54.309Z,90.80
2019-04-04T05:59:24.856Z,90.45
2019-04-04T06:01:56.276Z,90.10
2019-04-04T06:04:26.707Z,90.21
2019-04-04T06:06:57.136Z,89.57
2019-04-04T06:09:27.932Z,90.04
2019-04-04T06:11:58.366Z,89.85
2019-04-04T06:14:29.974Z,90.89
2019-04-04T06:17:02.501Z,90.67
2019-04-04T06:19:32.933Z,90.55
2019-04-04T06:22:03.382Z,89.80
2019-04-04T06:24:34.744Z,90.22
2019-04-04T06:27:06.980Z,90.43
2019-04-04T06:29:37.587Z,90.33
2019-04-04T06:32:08.068Z,89.56
2019-04-04T06:34:38.527Z,89.18
2019-04-04T06:37:08.960Z,89.50
2019-04-04T06:39:39.437Z,90.07
2019-04-04T06:42:11.322Z,90.11
2019-04-04T06:44:45.081Z,89.62
2019-04-04T06:47:16.572Z,89.22
2019-04-04T06:49:47.398Z,88.43
2019-04-04T06:52:19.232Z,88.78
2019-04-04T06:54:49.834Z,89.33
2019-04-04T06:57:21.551Z,88.46
2019-04-04T06:59:52.026Z,87.77
2019-04-04T07:02:24.009Z,88.16
2019-04-04T07:04:54.585Z,87.57
2019-04-04T07:07:25.504Z,87.06
2019-04-04T07:09:55.986Z,87.14
2019-04-04T07:12:28.378Z,88.34
2019-04-04T07:14:59.041Z,89.28
2019-04-04T07:17:29.804Z,89.73
2019-04-04T07:20:00.232Z,90.11
2019-04-04T07:22:31.373Z,88.84
2019-04-04T07:25:05.737Z,88.67
2019-04-04T07:27:35.862Z,88.97
2019-04-04T07:30:08.038Z,89.15
2019-04-04T07:32:41.007Z,87.87
2019-04-04T07:35:11.117Z,88.64
2019-04-04T07:37:41.551Z,88.66
2019-04-04T07:40:12.390Z,88.74
2019-04-04T07:42:47.031Z,88.72
2019-04-04T07:45:16.882Z,87.06
2019-04-04T07:47:47.773Z,87.54
2019-04-04T07:50:18.386Z,87.55
2019-04-04T07:52:49.152Z,87.79
2019-04-04T07:55:21.439Z,87.68
2019-04-04T07:57:52.923Z,86.65
2019-04-04T08:00:23.455Z,86.99
2019-04-04T08:02:53.891Z,85.98
2019-04-04T08:05:25.054Z,86.41
2019-04-04T08:07:55.485Z,86.67
2019-04-04T08:10:27.728Z,86.41
2019-04-04T08:13:00.084Z,86.04
2019-04-04T08:15:31.275Z,86.37
2019-04-04T08:18:01.781Z,85.82
2019-04-04T08:20:32.592Z,84.98
2019-04-04T08:23:03.285Z,84.34
2019-04-04T08:25:33.722Z,83.74
2019-04-04T08:28:04.390Z,83.83
2019-04-04T08:30:34.849Z,84.27
2019-04-04T08:33:05.383Z,83.89
2019-04-04T08:35:35.866Z,83.57
2019-04-04T08:38:06.754Z,84.27
2019-04-04T08:40:37.288Z,84.54
2019-04-04T08:43:07.769Z,84.28
2019-04-04T08:45:38.490Z,83.81
2019-04-04T08:48:09.321Z,84.21
2019-04-04T08:50:39.805Z,83.41
2019-04-04T08:53:10.243Z,84.22
2019-04-04T08:55:40.684Z,84.17
2019-04-04T08:58:11.857Z,84.09
2019-04-04T09:00:42.498Z,83.26
2019-04-04T09:03:12.934Z,82.76
2019-04-04T09:05:43.417Z,81.70
2019-04-04T09:08:14.222Z,79.75
2019-04-04T09:10:46.643Z,80.51
2019-04-04T09:13:18.220Z,80.23
2019-04-04T09:15:49.060Z,79.90
2019-04-04T09:18:19.498Z,81.16
2019-04-04T09:20:50.078Z,79.03
2019-04-04T09:23:20.510Z,78.30
2019-04-04T09:25:50.950Z,79.23
2019-04-04T09:28:21.593Z,79.03
2019-04-04T09:30:52.071Z,79.95
2019-04-04T09:33:23.604Z,80.16
2019-04-04T09:35:54.109Z,80.85
2019-04-04T09:38:24.552Z,77.80
2019-04-04T09:40:55.026Z,77.21
2019-04-04T09:43:25.923Z,77.72
2019-04-04T09:45:56.445Z,76.30
2019-04-04T09:48:27.078Z,76.22
2019-04-04T09:50:57.568Z,76.65
2019-04-04T09:53:28.046Z,75.40
2019-04-04T09:55:58.752Z,76.69
2019-04-04T09:58:29.450Z,75.72
2019-04-04T10:01:00.174Z,76.37
2019-04-04T10:03:30.613Z,77.12
2019-04-04T10:06:01.085Z,76.16
2019-04-04T10:08:31.808Z,76.52
2019-04-04T10:11:02.246Z,76.29
2019-04-04T10:13:33.495Z,76.67
2019-04-04T10:16:04.035Z,76.39
2019-04-04T10:18:34.770Z,75.68
2019-04-04T10:21:11.989Z,76.18
2019-04-04T10:23:38.856Z,75.33
2019-04-04T10:26:09.299Z,76.58
2019-04-04T10:28:39.799Z,75.18
2019-04-04T10:31:10.250Z,74.64
2019-04-04T10:33:42.193Z,75.42
2019-04-04T10:36:13.399Z,75.79
2019-04-04T10:38:44.261Z,75.51
2019-04-04T10:41:14.696Z,76.94
2019-04-04T10:43:45.173Z,76.00
2019-04-04T10:46:16.325Z,76.26
2019-04-04T10:48:47.076Z,75.84
2019-04-04T10:51:17.656Z,76.24
2019-04-04T10:53:48.398Z,75.96
2019-04-04T10:56:18.835Z,76.22
2019-04-04T10:58:49.654Z,76.46
2019-04-04T11:01:20.393Z,76.81
2019-04-04T11:03:51.566Z,76.59
2019-04-04T11:06:22.069Z,76.53
2019-04-04T11:08:52.892Z,77.01
2019-04-04T11:11:23.329Z,76.73
2019-04-04T11:13:54.238Z,75.70
2019-04-04T11:16:30.370Z,76.83
2019-04-04T11:18:56.981Z,77.47
2019-04-04T11:21:27.486Z,77.67
2019-04-04T11:23:57.938Z,77.13
2019-04-04T11:26:28.477Z,76.92
2019-04-04T11:28:58.978Z,76.13
2019-04-04T11:31:29.907Z,75.92
2019-04-04T11:34:00.350Z,75.22
2019-04-04T11:36:31.182Z,75.59
2019-04-04T11:39:01.631Z,74.96
2019-04-04T11:41:32.107Z,74.79
2019-04-04T11:44:02.586Z,74.54
2019-04-04T11:46:33.200Z,74.92
2019-04-04T11:49:03.636Z,75.26
2019-04-04T11:51:34.130Z,75.63
2019-04-04T11:54:04.870Z,75.25
2019-04-04T11:56:35.331Z,75.68
2019-04-04T11:59:08.157Z,75.90
2019-04-04T12:01:39.970Z,76.07
2019-04-04T12:04:10.457Z,76.21
2019-04-04T12:06:41.550Z,76.28
2019-04-04T12:09:12.766Z,76.45
2019-04-04T12:11:43.350Z,77.02
2019-04-04T12:14:14.772Z,76.60
2019-04-04T12:16:45.234Z,76.11
2019-04-04T12:19:15.788Z,76.63
2019-04-04T12:21:47.717Z,76.71
2019-04-04T12:24:19.975Z,76.51
2019-04-04T12:26:50.895Z,76.97
2019-04-04T12:29:21.345Z,78.12
2019-04-04T12:31:51.794Z,78.45
2019-04-04T12:34:22.592Z,77.92
2019-04-04T12:36:53.062Z,77.75
2019-04-04T12:39:23.513Z,77.88
2019-04-04T12:41:54.038Z,77.59
2019-04-04T12:44:24.823Z,77.61
2019-04-04T12:46:55.266Z,77.24
2019-04-04T12:49:27.393Z,77.19
2019-04-04T12:51:58.195Z,78.04
2019-04-04T12:54:28.652Z,78.15
2019-04-04T12:56:59.148Z,77.86
2019-04-04T12:59:29.591Z,77.67
2019-04-04T13:02:00.389Z,77.91
2019-04-04T13:04:32.409Z,78.45
2019-04-04T13:07:03.910Z,78.69
2019-04-04T13:09:34.358Z,78.56
2019-04-04T13:12:05.928Z,77.63
2019-04-04T13:14:36.398Z,77.70
2019-04-04T13:17:07.237Z,77.81
2019-04-04T13:19:38.413Z,78.13
2019-04-04T13:22:09.251Z,78.05
2019-04-04T13:24:41.191Z,78.95
2019-04-04T13:27:11.680Z,79.03
2019-04-04T13:29:44.029Z,78.30
2019-04-04T13:32:14.470Z,78.67
2019-04-04T13:34:44.983Z,78.22
2019-04-04T13:37:15.815Z,78.42
2019-04-04T13:39:46.264Z,77.77
2019-04-04T13:42:17.726Z,77.90
2019-04-04T13:44:50.468Z,78.17
2019-04-04T13:47:20.754Z,78.43
2019-04-04T13:49:51.596Z,77.94
2019-04-04T13:52:22.157Z,78.83
2019-04-04T13:54:55.633Z,79.10
2019-04-04T13:57:25.632Z,79.57
2019-04-04T13:59:56.062Z,80.38
2019-04-04T14:02:26.868Z,80.55
2019-04-04T14:05:09.148Z,80.09
2019-04-04T14:07:29.598Z,80.00
2019-04-04T14:10:00.039Z,80.60
2019-04-04T14:12:31.301Z,80.46
2019-04-04T14:15:02.080Z,80.41
2019-04-04T14:17:32.532Z,80.48
2019-04-04T14:20:03.380Z,80.34
2019-04-04T14:22:34.131Z,80.93
2019-04-04T14:25:05.189Z,80.85
2019-04-04T14:27:35.694Z,81.33
2019-04-04T14:30:07.216Z,81.13
2019-04-04T14:32:37.906Z,81.14
2019-04-04T14:35:08.908Z,81.19
2019-04-04T14:37:39.339Z,80.87
2019-04-04T14:40:09.980Z,80.99
2019-04-04T14:42:41.400Z,81.52
2019-04-04T14:45:12.305Z,81.65
2019-04-04T14:47:42.749Z,81.58
2019-04-04T14:50:13.330Z,81.65
2019-04-04T14:52:43.932Z,82.17
2019-04-04T14:55:14.376Z,82.02
2019-04-04T14:57:44.876Z,81.63
2019-04-04T15:00:16.704Z,81.45
2019-04-04T15:02:49.051Z,81.34
2019-04-04T15:05:19.652Z,81.24
2019-04-04T15:07:50.668Z,81.40
2019-04-04T15:10:21.105Z,81.86
2019-04-04T15:12:52.210Z,81.75
2019-04-04T15:15:22.989Z,82.30
2019-04-04T15:17:53.785Z,82.61
2019-04-04T15:20:24.573Z,82.50
2019-04-04T15:22:55.361Z,82.57
2019-04-04T15:25:26.505Z,82.68
2019-04-04T15:27:57.003Z,82.50
2019-04-04T15:30:28.372Z,82.95
2019-04-04T15:32:58.802Z,82.93
2019-04-04T15:35:29.657Z,82.56
2019-04-04T15:38:00.111Z,83.13
2019-04-04T15:40:30.922Z,82.92
2019-04-04T15:43:01.460Z,83.02
2019-04-04T15:45:31.933Z,82.67
2019-04-04T15:48:02.689Z,82.78
2019-04-04T15:50:33.208Z,83.07
2019-04-04T15:53:03.993Z,82.63
2019-04-04T15:55:34.611Z,82.55
2019-04-04T15:58:05.200Z,83.26
2019-04-04T16:00:35.642Z,83.12
2019-04-04T16:03:06.077Z,83.33
2019-04-04T16:05:38.784Z,83.12
2019-04-04T16:08:10.937Z,83.44
2019-04-04T16:10:41.813Z,83.63
2019-04-04T16:13:12.345Z,83.69
2019-04-04T16:15:43.844Z,82.73
2019-04-04T16:18:14.293Z,83.09
2019-04-04T16:20:46.692Z,83.00
2019-04-04T16:23:17.143Z,82.62
2019-04-04T16:25:47.966Z,82.39
2019-04-04T16:28:18.491Z,82.53
2019-04-04T16:30:49.345Z,82.74
2019-04-04T16:33:19.799Z,82.71
2019-04-04T16:35:50.298Z,82.70
2019-04-04T16:38:22.928Z,82.04
2019-04-04T16:40:53.504Z,82.46
2019-04-04T16:43:24.236Z,82.38
2019-04-04T16:45:55.120Z,82.67
2019-04-04T16:48:25.569Z,83.21
2019-04-04T16:50:56.048Z,82.94
2019-04-04T16:53:26.497Z,82.85
2019-04-04T16:55:57.328Z,82.60
2019-04-04T16:58:28.229Z,82.51
2019-04-04T17:00:59.030Z,82.67
2019-04-04T17:03:30.048Z,82.84
2019-04-04T17:06:01.196Z,82.94
2019-04-04T17:08:31.638Z,83.39
2019-04-04T17:11:02.166Z,83.78
2019-04-04T17:13:33.246Z,83.96
2019-04-04T17:16:04.044Z,84.07
2019-04-04T17:18:34.878Z,83.86
2019-04-04T17:21:05.417Z,83.94
2019-04-04T17:23:35.853Z,84.31
2019-04-04T17:26:06.686Z,84.68
2019-04-04T17:28:37.666Z,84.14
2019-04-04T17:31:08.608Z,84.14
2019-04-04T17:33:40.264Z,84.32
2019-04-04T17:36:10.944Z,84.00
2019-04-04T17:38:41.595Z,83.79
2019-04-04T17:41:12.162Z,83.94
2019-04-04T17:43:43.897Z,84.01
2019-04-04T17:46:14.826Z,84.36
2019-04-04T17:48:45.365Z,84.25
2019-04-04T17:51:15.875Z,84.94
2019-04-04T17:53:46.918Z,84.41
2019-04-04T17:56:18.042Z,84.87
2019-04-04T17:58:48.902Z,85.08
2019-04-04T18:01:19.437Z,85.26
2019-04-04T18:03:50.498Z,84.60
2019-04-04T18:06:21.359Z,84.31
2019-04-04T18:08:52.334Z,84.90
2019-04-04T18:11:22.886Z,85.03
2019-04-04T18:13:54.864Z,84.79
2019-04-04T18:16:27.225Z,84.29
2019-04-04T18:18:57.861Z,84.39
2019-04-04T18:21:28.666Z,84.05
2019-04-04T18:23:59.132Z,83.98
2019-04-04T18:26:31.441Z,84.33
2019-04-04T18:29:02.493Z,84.34
2019-04-04T18:31:32.941Z,84.32
2019-04-04T18:34:04.230Z,84.53
2019-04-04T18:36:41.456Z,84.65
2019-04-04T18:39:12.246Z,84.98
2019-04-04T18:41:42.975Z,85.09
2019-04-04T18:44:13.452Z,85.63
2019-04-04T18:46:44.585Z,85.51
2019-04-04T18:49:15.078Z,85.30
2019-04-04T18:51:45.674Z,85.32
2019-04-04T18:54:16.696Z,85.18
2019-04-04T18:56:47.142Z,85.56
2019-04-04T18:59:17.631Z,86.17
2019-04-04T19:01:48.166Z,85.85
2019-04-04T19:04:18.877Z,86.04
2019-04-04T19:06:52.499Z,85.90
2019-04-04T19:09:23.134Z,86.44
2019-04-04T19:11:53.597Z,85.75
2019-04-04T19:14:24.093Z,85.38
2019-04-04T19:16:56.571Z,85.92
2019-04-04T19:19:27.543Z,86.51
2019-04-04T19:21:58.480Z,86.57
2019-04-04T19:24:29.310Z,86.77
2019-04-04T19:27:00.884Z,86.75
2019-04-04T19:29:31.781Z,86.91
2019-04-04T19:32:02.553Z,86.75
2019-04-04T19:34:32.995Z,86.79
2019-04-04T19:37:04.130Z,87.27
2019-04-04T19:39:36.476Z,87.29
2019-04-04T19:42:08.367Z,87.53
2019-04-04T19:44:38.882Z,87.89
2019-04-04T19:47:09.426Z,87.86
2019-04-04T19:49:39.923Z,88.13
2019-04-04T19:52:10.784Z,88.29
2019-04-04T19:54:41.409Z,88.87
2019-04-04T19:57:16.706Z,89.21
2019-04-04T19:59:47.153Z,88.70
2019-04-04T20:02:20.385Z,89.56
2019-04-04T20:04:50.831Z,89.69
2019-04-04T20:07:21.692Z,89.96
2019-04-04T20:09:52.512Z,89.60
2019-04-04T20:12:23.033Z,89.59
2019-04-04T20:14:53.526Z,89.60
2019-04-04T20:17:24.179Z,89.72
2019-04-04T20:19:54.681Z,89.77
2019-04-04T20:22:25.192Z,89.59
2019-04-04T20:24:57.490Z,89.95
2019-04-04T20:27:28.351Z,89.59
2019-04-04T20:29:58.875Z,89.82
2019-04-04T20:32:30.932Z,90.24
2019-04-04T20:35:02.445Z,90.49
2019-04-04T20:37:33.296Z,90.78
2019-04-04T20:40:05.332Z,90.71
2019-04-04T20:42:35.848Z,90.77
2019-04-04T20:45:07.062Z,90.87
2019-04-04T20:47:38.066Z,91.14
2019-04-04T20:50:08.810Z,90.68
2019-04-04T20:52:40.427Z,91.11
2019-04-04T20:55:12.093Z,91.07
2019-04-04T20:57:42.620Z,90.69
2019-04-04T21:00:14.506Z,90.51
2019-04-04T21:02:45.017Z,90.98
2019-04-04T21:05:15.542Z,90.89
2019-04-04T21:07:46.794Z,90.84
2019-04-04T21:10:17.813Z,90.65
2019-04-04T21:12:49.103Z,90.71
2019-04-04T21:15:20.390Z,90.76
2019-04-04T21:17:50.853Z,90.46
2019-04-04T21:20:21.396Z,90.16
2019-04-04T21:22:53.692Z,89.66
2019-04-04T21:25:25.233Z,89.96
2019-04-04T21:27:55.891Z,89.36
2019-04-04T21:30:26.379Z,89.69
2019-04-04T21:32:57.293Z,89.56
2019-04-04T21:35:28.235Z,89.79
2019-04-04T21:37:59.106Z,89.59
2019-04-04T21:40:29.646Z,89.15
2019-04-04T21:43:00.179Z,89.43
2019-04-04T21:45:30.682Z,89.54
2019-04-04T21:48:02.021Z,89.82
2019-04-04T21:50:33.235Z,89.63
2019-04-04T21:53:03.773Z,89.37
2019-04-04T21:55:34.209Z,89.58
2019-04-04T21:58:05.345Z,89.67
2019-04-04T22:00:41.900Z,89.47
2019-04-04T22:03:12.781Z,89.72
2019-04-04T22:05:43.216Z,89.83
2019-04-04T22:08:13.706Z,88.80
2019-04-04T22:10:44.217Z,89.02
2019-04-04T22:13:14.657Z,89.15
2019-04-04T22:15:45.792Z,89.12
2019-04-04T22:18:16.227Z,89.38
2019-04-04T22:20:46.980Z,89.06
2019-04-04T22:23:17.454Z,89.14
2019-04-04T22:25:49.355Z,89.53
2019-04-04T22:28:20.295Z,89.27
2019-04-04T22:30:52.493Z,89.79
2019-04-04T22:33:22.929Z,89.76
2019-04-04T22:35:53.763Z,89.21
2019-04-04T22:38:24.266Z,89.62
2019-04-04T22:40:54.700Z,89.68
2019-04-04T22:43:25.136Z,90.01
2019-04-04T22:45:55.610Z,89.80
2019-04-04T22:48:26.411Z,89.86
2019-04-04T22:50:56.914Z,89.93
2019-04-04T22:53:27.447Z,90.03
2019-04-04T22:55:57.879Z,89.72
2019-04-04T22:58:29.048Z,90.44
2019-04-04T23:01:00.466Z,90.37
2019-04-04T23:03:30.906Z,90.45
2019-04-04T23:06:01.990Z,90.16
2019-04-04T23:08:32.475Z,90.34
2019-04-04T23:11:02.912Z,90.14
2019-04-04T23:13:33.702Z,90.42
2019-04-04T23:16:04.614Z,90.34
2019-04-04T23:18:35.366Z,90.78
2019-04-04T23:21:05.821Z,90.48
2019-04-04T23:23:36.328Z,90.59
2019-04-04T23:26:06.770Z,90.39
2019-04-04T23:28:37.231Z,90.53
2019-04-04T23:31:07.738Z,90.02
2019-04-04T23:33:38.178Z,90.32
2019-04-04T23:36:08.668Z,89.83
2019-04-04T23:38:39.101Z,90.21
2019-04-04T23:41:09.541Z,90.60
2019-04-04T23:43:40.039Z,90.48
2019-04-04T23:46:10.809Z,90.60
2019-04-04T23:48:41.647Z,90.87
2019-04-04T23:51:12.467Z,91.02
2019-04-04T23:53:42.903Z,90.97
2019-04-04T23:56:13.391Z,90.73
2019-04-04T23:58:43.875Z,90.77
